AR78 weather

Unity Health White County Medical Center Heliport
Searcy, Arkansas, United States

Public forecast

Using degrees Fahrenheit for public forecast. Weather courtesy of forecast.io.

METAR (pilot weather report)

Closest report is Searcy Municipal Airport, 1.4 nm (2.6 km) SSW. Retrieved 2019/07/16 16:22 UTC (0 seconds ago):

KSRC 161622Z AUTO 19007KT 10SM BKN006 BKN023 OVC028 24/24 A2998 RMK AO2 RAE18 CIG 004V009 P0000

TAF (pilot weather forecast)

Closest forecast is Little Rock Air Force Base, 28.1 nm (52.0 km) SW. Retrieved 2019/07/16 15:15 UTC (56 minutes ago):

TAF TAF KLRF 161500Z 1615/1721 VRB06KT 9999 BKN018 BKN045 QNH2995INS TEMPO 1616/1617 VRB06KT 8000 -RA BKN018 BKN045 BECMG 1617/1618 22010G15KT 9999 BKN025 BKN050 QNH2994INS BECMG 1700/1701 VRB06KT 9999 BKN050 QNH2992INS BECMG 1708/1709 21006KT 8000 BR SCT035 WS020/23035KT QNH2993INS BECMG 1711/1712 22006KT 8000 BR BKN008 WS020/23035KT QNH2999INS BECMG 1713/1714 23010G15KT 9000 BR FEW008 QNH2996INS TX30/1622Z TN24/1615Z